sensor_id;sensor_type;location;lat;lon;timestamp;P1;durP1;ratioP1;P2;durP2;ratioP2
24813;SDS011;12904;50.088;11.414;2022-10-22T00:01:56;48.80;;;24.92;;
24813;SDS011;12904;50.088;11.414;2022-10-22T00:04:22;58.65;;;27.15;;
24813;SDS011;12904;50.088;11.414;2022-10-22T00:06:47;41.67;;;24.25;;
24813;SDS011;12904;50.088;11.414;2022-10-22T00:09:13;56.20;;;26.42;;
24813;SDS011;12904;50.088;11.414;2022-10-22T00:11:39;45.47;;;24.55;;
24813;SDS011;12904;50.088;11.414;2022-10-22T00:14:05;40.85;;;25.13;;
24813;SDS011;12904;50.088;11.414;2022-10-22T00:16:31;57.45;;;27.13;;
24813;SDS011;12904;50.088;11.414;2022-10-22T00:18:57;39.63;;;25.55;;
24813;SDS011;12904;50.088;11.414;2022-10-22T00:21:23;60.80;;;29.02;;
24813;SDS011;12904;50.088;11.414;2022-10-22T00:23:49;56.13;;;28.38;;
24813;SDS011;12904;50.088;11.414;2022-10-22T00:26:15;47.50;;;27.02;;
24813;SDS011;12904;50.088;11.414;2022-10-22T00:28:41;51.33;;;27.60;;
24813;SDS011;12904;50.088;11.414;2022-10-22T00:31:06;46.00;;;27.45;;
24813;SDS011;12904;50.088;11.414;2022-10-22T00:33:32;51.45;;;27.55;;
24813;SDS011;12904;50.088;11.414;2022-10-22T00:35:58;54.33;;;27.92;;
24813;SDS011;12904;50.088;11.414;2022-10-22T00:38:23;42.22;;;26.55;;
24813;SDS011;12904;50.088;11.414;2022-10-22T00:40:49;58.10;;;30.02;;
24813;SDS011;12904;50.088;11.414;2022-10-22T00:43:17;54.05;;;28.42;;
24813;SDS011;12904;50.088;11.414;2022-10-22T00:45:43;54.55;;;27.27;;
24813;SDS011;12904;50.088;11.414;2022-10-22T00:48:10;43.83;;;26.77;;
24813;SDS011;12904;50.088;11.414;2022-10-22T00:50:55;60.65;;;27.67;;
24813;SDS011;12904;50.088;11.414;2022-10-22T00:53:36;40.45;;;24.58;;
24813;SDS011;12904;50.088;11.414;2022-10-22T00:56:05;35.33;;;24.15;;
24813;SDS011;12904;50.088;11.414;2022-10-22T00:58:34;34.47;;;23.83;;
24813;SDS011;12904;50.088;11.414;2022-10-22T01:01:03;41.53;;;25.20;;
24813;SDS011;12904;50.088;11.414;2022-10-22T01:03:33;39.03;;;24.15;;
24813;SDS011;12904;50.088;11.414;2022-10-22T01:05:59;50.58;;;25.52;;
24813;SDS011;12904;50.088;11.414;2022-10-22T01:08:42;40.30;;;23.65;;
24813;SDS011;12904;50.088;11.414;2022-10-22T01:21:44;44.95;;;24.90;;
24813;SDS011;12904;50.088;11.414;2022-10-22T01:24:19;42.95;;;23.85;;
24813;SDS011;12904;50.088;11.414;2022-10-22T01:29:53;35.67;;;22.52;;
24813;SDS011;12904;50.088;11.414;2022-10-22T01:32:24;45.35;;;23.20;;
24813;SDS011;12904;50.088;11.414;2022-10-22T01:34:53;34.10;;;22.27;;
24813;SDS011;12904;50.088;11.414;2022-10-22T01:37:24;44.47;;;22.88;;
24813;SDS011;12904;50.088;11.414;2022-10-22T01:39:53;38.67;;;20.90;;
24813;SDS011;12904;50.088;11.414;2022-10-22T01:42:22;30.95;;;21.58;;
24813;SDS011;12904;50.088;11.414;2022-10-22T01:44:48;39.10;;;22.38;;
24813;SDS011;12904;50.088;11.414;2022-10-22T01:57:48;32.17;;;20.17;;
24813;SDS011;12904;50.088;11.414;2022-10-22T02:00:17;30.83;;;20.23;;
24813;SDS011;12904;50.088;11.414;2022-10-22T02:02:48;27.95;;;19.60;;
24813;SDS011;12904;50.088;11.414;2022-10-22T02:05:29;24.67;;;18.33;;
24813;SDS011;12904;50.088;11.414;2022-10-22T02:08:09;25.95;;;18.35;;
24813;SDS011;12904;50.088;11.414;2022-10-22T02:10:37;27.15;;;19.08;;
24813;SDS011;12904;50.088;11.414;2022-10-22T02:13:06;23.83;;;18.58;;
24813;SDS011;12904;50.088;11.414;2022-10-22T02:15:33;29.45;;;19.45;;
24813;SDS011;12904;50.088;11.414;2022-10-22T02:18:01;28.75;;;18.23;;
24813;SDS011;12904;50.088;11.414;2022-10-22T02:20:30;34.13;;;20.00;;
24813;SDS011;12904;50.088;11.414;2022-10-22T02:22:59;28.17;;;18.77;;
24813;SDS011;12904;50.088;11.414;2022-10-22T02:25:26;30.48;;;19.88;;
24813;SDS011;12904;50.088;11.414;2022-10-22T02:30:33;20.77;;;18.63;;
24813;SDS011;12904;50.088;11.414;2022-10-22T02:33:03;27.73;;;18.20;;
24813;SDS011;12904;50.088;11.414;2022-10-22T02:35:31;31.25;;;17.52;;
24813;SDS011;12904;50.088;11.414;2022-10-22T02:37:58;35.15;;;19.35;;
24813;SDS011;12904;50.088;11.414;2022-10-22T02:40:25;24.20;;;18.48;;
24813;SDS011;12904;50.088;11.414;2022-10-22T02:42:52;22.38;;;17.65;;
24813;SDS011;12904;50.088;11.414;2022-10-22T02:45:17;28.55;;;18.88;;
24813;SDS011;12904;50.088;11.414;2022-10-22T02:47:44;29.80;;;17.88;;
24813;SDS011;12904;50.088;11.414;2022-10-22T02:50:09;31.73;;;19.33;;
24813;SDS011;12904;50.088;11.414;2022-10-22T02:52:35;22.60;;;19.58;;
24813;SDS011;12904;50.088;11.414;2022-10-22T02:55:01;25.65;;;17.83;;
24813;SDS011;12904;50.088;11.414;2022-10-22T02:57:27;32.15;;;18.08;;
24813;SDS011;12904;50.088;11.414;2022-10-22T02:59:53;25.40;;;17.60;;
24813;SDS011;12904;50.088;11.414;2022-10-22T03:02:19;28.23;;;18.17;;
24813;SDS011;12904;50.088;11.414;2022-10-22T03:04:44;28.80;;;19.85;;
24813;SDS011;12904;50.088;11.414;2022-10-22T03:07:10;31.85;;;19.92;;
24813;SDS011;12904;50.088;11.414;2022-10-22T03:09:35;50.63;;;21.25;;
24813;SDS011;12904;50.088;11.414;2022-10-22T03:12:01;56.22;;;20.75;;
24813;SDS011;12904;50.088;11.414;2022-10-22T03:14:27;50.78;;;20.75;;
24813;SDS011;12904;50.088;11.414;2022-10-22T03:16:52;45.33;;;21.35;;
24813;SDS011;12904;50.088;11.414;2022-10-22T03:19:18;50.88;;;22.85;;
24813;SDS011;12904;50.088;11.414;2022-10-22T03:21:52;45.85;;;21.45;;
24813;SDS011;12904;50.088;11.414;2022-10-22T03:24:33;44.55;;;21.00;;
24813;SDS011;12904;50.088;11.414;2022-10-22T03:27:05;35.65;;;21.23;;
24813;SDS011;12904;50.088;11.414;2022-10-22T03:29:32;62.97;;;23.85;;
24813;SDS011;12904;50.088;11.414;2022-10-22T03:32:00;47.92;;;21.52;;
24813;SDS011;12904;50.088;11.414;2022-10-22T03:34:25;37.15;;;21.95;;
24813;SDS011;12904;50.088;11.414;2022-10-22T03:36:51;35.67;;;20.98;;
24813;SDS011;12904;50.088;11.414;2022-10-22T03:39:18;39.33;;;20.35;;
24813;SDS011;12904;50.088;11.414;2022-10-22T03:41:46;58.17;;;22.58;;
24813;SDS011;12904;50.088;11.414;2022-10-22T03:44:13;68.22;;;23.70;;
24813;SDS011;12904;50.088;11.414;2022-10-22T03:46:40;39.90;;;21.75;;
24813;SDS011;12904;50.088;11.414;2022-10-22T03:49:06;46.63;;;22.65;;
24813;SDS011;12904;50.088;11.414;2022-10-22T03:51:32;75.65;;;24.25;;
24813;SDS011;12904;50.088;11.414;2022-10-22T03:53:58;43.15;;;21.10;;
24813;SDS011;12904;50.088;11.414;2022-10-22T03:56:24;31.48;;;20.60;;
24813;SDS011;12904;50.088;11.414;2022-10-22T03:58:49;89.63;;;25.05;;
24813;SDS011;12904;50.088;11.414;2022-10-22T04:01:15;41.42;;;20.95;;
24813;SDS011;12904;50.088;11.414;2022-10-22T04:03:40;33.30;;;20.13;;
24813;SDS011;12904;50.088;11.414;2022-10-22T04:06:07;40.95;;;20.10;;
24813;SDS011;12904;50.088;11.414;2022-10-22T04:08:35;34.92;;;20.80;;
24813;SDS011;12904;50.088;11.414;2022-10-22T04:11:03;39.42;;;21.45;;
24813;SDS011;12904;50.088;11.414;2022-10-22T04:13:29;28.42;;;19.63;;
24813;SDS011;12904;50.088;11.414;2022-10-22T04:15:54;32.72;;;19.88;;
24813;SDS011;12904;50.088;11.414;2022-10-22T04:18:20;34.33;;;18.70;;
24813;SDS011;12904;50.088;11.414;2022-10-22T04:20:47;64.10;;;21.95;;
24813;SDS011;12904;50.088;11.414;2022-10-22T04:23:12;29.15;;;18.52;;
24813;SDS011;12904;50.088;11.414;2022-10-22T04:25:38;26.20;;;18.00;;
24813;SDS011;12904;50.088;11.414;2022-10-22T04:28:08;26.10;;;16.27;;
24813;SDS011;12904;50.088;11.414;2022-10-22T04:30:34;52.70;;;21.05;;
24813;SDS011;12904;50.088;11.414;2022-10-22T04:33:00;23.17;;;16.75;;
24813;SDS011;12904;50.088;11.414;2022-10-22T04:35:27;26.08;;;16.00;;
24813;SDS011;12904;50.088;11.414;2022-10-22T04:37:53;21.70;;;14.77;;
24813;SDS011;12904;50.088;11.414;2022-10-22T04:40:19;12.73;;;10.57;;
24813;SDS011;12904;50.088;11.414;2022-10-22T04:42:45;17.00;;;11.10;;
24813;SDS011;12904;50.088;11.414;2022-10-22T04:45:11;12.07;;;9.25;;
24813;SDS011;12904;50.088;11.414;2022-10-22T04:47:36;8.73;;;7.68;;
24813;SDS011;12904;50.088;11.414;2022-10-22T04:50:02;11.73;;;7.57;;
24813;SDS011;12904;50.088;11.414;2022-10-22T04:52:28;13.05;;;7.75;;
24813;SDS011;12904;50.088;11.414;2022-10-22T04:54:55;14.07;;;8.85;;
24813;SDS011;12904;50.088;11.414;2022-10-22T04:57:20;9.25;;;8.35;;
24813;SDS011;12904;50.088;11.414;2022-10-22T04:59:46;10.98;;;8.27;;
24813;SDS011;12904;50.088;11.414;2022-10-22T05:02:11;11.70;;;9.85;;
24813;SDS011;12904;50.088;11.414;2022-10-22T05:04:37;18.90;;;11.23;;
24813;SDS011;12904;50.088;11.414;2022-10-22T05:07:02;15.95;;;12.50;;
24813;SDS011;12904;50.088;11.414;2022-10-22T05:09:28;23.40;;;12.65;;
24813;SDS011;12904;50.088;11.414;2022-10-22T05:11:54;36.75;;;13.43;;
24813;SDS011;12904;50.088;11.414;2022-10-22T05:14:20;23.77;;;12.02;;
24813;SDS011;12904;50.088;11.414;2022-10-22T05:16:47;18.20;;;11.65;;
24813;SDS011;12904;50.088;11.414;2022-10-22T05:19:21;21.02;;;11.90;;
24813;SDS011;12904;50.088;11.414;2022-10-22T05:21:49;24.65;;;11.13;;
24813;SDS011;12904;50.088;11.414;2022-10-22T05:24:20;16.55;;;10.35;;
24813;SDS011;12904;50.088;11.414;2022-10-22T05:26:49;26.40;;;11.38;;
24813;SDS011;12904;50.088;11.414;2022-10-22T05:29:16;18.13;;;11.32;;
24813;SDS011;12904;50.088;11.414;2022-10-22T05:31:42;9.63;;;8.65;;
24813;SDS011;12904;50.088;11.414;2022-10-22T05:34:07;13.05;;;8.30;;
24813;SDS011;12904;50.088;11.414;2022-10-22T05:36:33;8.05;;;7.00;;
24813;SDS011;12904;50.088;11.414;2022-10-22T05:38:59;9.90;;;7.60;;
24813;SDS011;12904;50.088;11.414;2022-10-22T05:41:25;12.45;;;7.85;;
24813;SDS011;12904;50.088;11.414;2022-10-22T05:43:55;11.25;;;8.05;;
24813;SDS011;12904;50.088;11.414;2022-10-22T05:46:22;40.17;;;10.57;;
24813;SDS011;12904;50.088;11.414;2022-10-22T05:48:53;32.22;;;10.23;;
24813;SDS011;12904;50.088;11.414;2022-10-22T05:51:24;9.82;;;7.68;;
24813;SDS011;12904;50.088;11.414;2022-10-22T05:53:52;26.23;;;9.65;;
24813;SDS011;12904;50.088;11.414;2022-10-22T05:56:20;21.88;;;10.25;;
24813;SDS011;12904;50.088;11.414;2022-10-22T05:58:46;27.15;;;11.48;;
24813;SDS011;12904;50.088;11.414;2022-10-22T06:03:38;34.35;;;11.63;;
24813;SDS011;12904;50.088;11.414;2022-10-22T06:06:05;24.90;;;10.98;;
24813;SDS011;12904;50.088;11.414;2022-10-22T06:08:39;16.35;;;7.53;;
24813;SDS011;12904;50.088;11.414;2022-10-22T06:11:05;17.75;;;9.52;;
24813;SDS011;12904;50.088;11.414;2022-10-22T06:13:31;10.68;;;6.13;;
24813;SDS011;12904;50.088;11.414;2022-10-22T06:15:56;21.30;;;8.43;;
24813;SDS011;12904;50.088;11.414;2022-10-22T06:18:22;10.70;;;6.55;;
24813;SDS011;12904;50.088;11.414;2022-10-22T06:20:48;12.45;;;5.35;;
24813;SDS011;12904;50.088;11.414;2022-10-22T06:23:14;15.35;;;7.22;;
24813;SDS011;12904;50.088;11.414;2022-10-22T06:25:40;9.00;;;6.15;;
24813;SDS011;12904;50.088;11.414;2022-10-22T06:28:07;6.35;;;5.13;;
24813;SDS011;12904;50.088;11.414;2022-10-22T06:30:33;8.02;;;5.15;;
24813;SDS011;12904;50.088;11.414;2022-10-22T06:32:58;14.73;;;5.75;;
24813;SDS011;12904;50.088;11.414;2022-10-22T06:35:24;10.45;;;6.03;;
24813;SDS011;12904;50.088;11.414;2022-10-22T06:37:49;8.88;;;5.30;;
24813;SDS011;12904;50.088;11.414;2022-10-22T06:40:15;9.05;;;5.05;;
24813;SDS011;12904;50.088;11.414;2022-10-22T06:42:42;11.50;;;5.40;;
24813;SDS011;12904;50.088;11.414;2022-10-22T06:45:08;6.40;;;5.30;;
24813;SDS011;12904;50.088;11.414;2022-10-22T06:47:34;10.85;;;5.85;;
24813;SDS011;12904;50.088;11.414;2022-10-22T06:50:00;8.57;;;5.30;;
24813;SDS011;12904;50.088;11.414;2022-10-22T06:52:25;10.43;;;5.70;;
24813;SDS011;12904;50.088;11.414;2022-10-22T06:54:52;9.43;;;6.35;;
24813;SDS011;12904;50.088;11.414;2022-10-22T06:57:20;18.58;;;7.70;;
24813;SDS011;12904;50.088;11.414;2022-10-22T06:59:46;7.93;;;6.55;;
24813;SDS011;12904;50.088;11.414;2022-10-22T07:02:12;7.32;;;6.10;;
24813;SDS011;12904;50.088;11.414;2022-10-22T07:04:37;8.40;;;5.35;;
24813;SDS011;12904;50.088;11.414;2022-10-22T07:07:03;9.73;;;5.15;;
24813;SDS011;12904;50.088;11.414;2022-10-22T07:09:28;4.72;;;3.13;;
24813;SDS011;12904;50.088;11.414;2022-10-22T07:11:54;8.38;;;3.35;;
24813;SDS011;12904;50.088;11.414;2022-10-22T07:14:19;5.50;;;3.42;;
24813;SDS011;12904;50.088;11.414;2022-10-22T07:16:45;12.50;;;4.22;;
24813;SDS011;12904;50.088;11.414;2022-10-22T07:19:11;8.88;;;3.90;;
24813;SDS011;12904;50.088;11.414;2022-10-22T07:21:37;14.57;;;4.22;;
24813;SDS011;12904;50.088;11.414;2022-10-22T07:24:03;7.88;;;3.90;;
24813;SDS011;12904;50.088;11.414;2022-10-22T07:26:29;9.07;;;4.03;;
24813;SDS011;12904;50.088;11.414;2022-10-22T07:28:56;9.07;;;2.97;;
24813;SDS011;12904;50.088;11.414;2022-10-22T07:31:25;14.05;;;4.25;;
24813;SDS011;12904;50.088;11.414;2022-10-22T07:33:51;5.53;;;3.67;;
24813;SDS011;12904;50.088;11.414;2022-10-22T07:36:17;6.90;;;3.55;;
24813;SDS011;12904;50.088;11.414;2022-10-22T07:38:46;6.28;;;3.72;;
24813;SDS011;12904;50.088;11.414;2022-10-22T07:41:14;7.38;;;4.25;;
24813;SDS011;12904;50.088;11.414;2022-10-22T07:43:41;8.63;;;4.22;;
24813;SDS011;12904;50.088;11.414;2022-10-22T07:46:07;7.25;;;5.03;;
24813;SDS011;12904;50.088;11.414;2022-10-22T07:48:34;5.68;;;2.35;;
24813;SDS011;12904;50.088;11.414;2022-10-22T07:51:00;3.55;;;2.80;;
24813;SDS011;12904;50.088;11.414;2022-10-22T07:53:26;2.13;;;1.98;;
24813;SDS011;12904;50.088;11.414;2022-10-22T07:55:52;2.25;;;1.80;;
24813;SDS011;12904;50.088;11.414;2022-10-22T07:58:18;2.20;;;1.70;;
24813;SDS011;12904;50.088;11.414;2022-10-22T08:00:45;2.63;;;1.83;;
24813;SDS011;12904;50.088;11.414;2022-10-22T08:03:11;3.03;;;1.70;;
24813;SDS011;12904;50.088;11.414;2022-10-22T08:05:37;4.38;;;1.50;;
24813;SDS011;12904;50.088;11.414;2022-10-22T08:08:04;2.58;;;1.50;;
24813;SDS011;12904;50.088;11.414;2022-10-22T08:10:31;4.47;;;1.98;;
24813;SDS011;12904;50.088;11.414;2022-10-22T08:12:57;7.03;;;2.15;;
24813;SDS011;12904;50.088;11.414;2022-10-22T08:15:23;4.63;;;1.67;;
24813;SDS011;12904;50.088;11.414;2022-10-22T08:17:50;3.03;;;1.50;;
24813;SDS011;12904;50.088;11.414;2022-10-22T08:20:16;1.77;;;1.67;;
24813;SDS011;12904;50.088;11.414;2022-10-22T08:22:42;2.83;;;1.60;;
24813;SDS011;12904;50.088;11.414;2022-10-22T08:25:08;2.30;;;1.65;;
24813;SDS011;12904;50.088;11.414;2022-10-22T08:27:34;2.50;;;1.38;;
24813;SDS011;12904;50.088;11.414;2022-10-22T08:30:00;2.35;;;2.08;;
24813;SDS011;12904;50.088;11.414;2022-10-22T08:32:26;3.33;;;1.55;;
24813;SDS011;12904;50.088;11.414;2022-10-22T08:34:51;1.83;;;1.55;;
24813;SDS011;12904;50.088;11.414;2022-10-22T08:37:17;2.25;;;1.30;;
24813;SDS011;12904;50.088;11.414;2022-10-22T08:39:43;2.40;;;1.30;;
24813;SDS011;12904;50.088;11.414;2022-10-22T08:45:03;7.72;;;1.73;;
24813;SDS011;12904;50.088;11.414;2022-10-22T08:50:17;3.08;;;2.00;;
24813;SDS011;12904;50.088;11.414;2022-10-22T08:52:48;3.47;;;1.50;;
24813;SDS011;12904;50.088;11.414;2022-10-22T08:55:19;1.92;;;1.33;;
24813;SDS011;12904;50.088;11.414;2022-10-22T09:08:36;4.03;;;1.52;;
24813;SDS011;12904;50.088;11.414;2022-10-22T09:13:37;3.97;;;1.80;;
24813;SDS011;12904;50.088;11.414;2022-10-22T09:16:54;2.35;;;1.75;;
24813;SDS011;12904;50.088;11.414;2022-10-22T09:24:44;1.65;;;1.55;;
24813;SDS011;12904;50.088;11.414;2022-10-22T09:27:18;5.55;;;1.60;;
24813;SDS011;12904;50.088;11.414;2022-10-22T09:29:47;1.60;;;1.50;;
24813;SDS011;12904;50.088;11.414;2022-10-22T09:32:14;3.85;;;1.75;;
24813;SDS011;12904;50.088;11.414;2022-10-22T09:34:40;2.50;;;2.05;;
24813;SDS011;12904;50.088;11.414;2022-10-22T09:37:09;4.25;;;1.60;;
24813;SDS011;12904;50.088;11.414;2022-10-22T09:39:39;2.97;;;1.40;;
24813;SDS011;12904;50.088;11.414;2022-10-22T09:42:08;2.95;;;1.40;;
24813;SDS011;12904;50.088;11.414;2022-10-22T09:44:36;2.65;;;1.48;;
24813;SDS011;12904;50.088;11.414;2022-10-22T09:47:05;4.85;;;1.70;;
24813;SDS011;12904;50.088;11.414;2022-10-22T09:49:49;2.25;;;1.50;;
24813;SDS011;12904;50.088;11.414;2022-10-22T09:53:11;3.17;;;1.50;;
24813;SDS011;12904;50.088;11.414;2022-10-22T09:55:48;10.15;;;6.53;;
24813;SDS011;12904;50.088;11.414;2022-10-22T09:58:18;27.60;;;25.38;;
24813;SDS011;12904;50.088;11.414;2022-10-22T10:00:46;1.85;;;1.50;;
24813;SDS011;12904;50.088;11.414;2022-10-22T10:03:27;2.15;;;1.23;;
24813;SDS011;12904;50.088;11.414;2022-10-22T10:05:57;1.58;;;1.20;;
24813;SDS011;12904;50.088;11.414;2022-10-22T10:08:24;5.32;;;1.15;;
24813;SDS011;12904;50.088;11.414;2022-10-22T10:10:51;2.67;;;1.25;;
24813;SDS011;12904;50.088;11.414;2022-10-22T10:13:41;3.05;;;1.23;;
24813;SDS011;12904;50.088;11.414;2022-10-22T10:16:12;1.60;;;1.20;;
24813;SDS011;12904;50.088;11.414;2022-10-22T10:19:08;1.33;;;1.20;;
24813;SDS011;12904;50.088;11.414;2022-10-22T10:22:01;1.27;;;1.17;;
24813;SDS011;12904;50.088;11.414;2022-10-22T10:26:57;2.47;;;1.20;;
24813;SDS011;12904;50.088;11.414;2022-10-22T10:40:54;1.15;;;1.05;;
24813;SDS011;12904;50.088;11.414;2022-10-22T10:48:42;3.13;;;1.33;;
24813;SDS011;12904;50.088;11.414;2022-10-22T10:57:05;5.00;;;1.35;;
24813;SDS011;12904;50.088;11.414;2022-10-22T11:07:42;1.20;;;1.00;;
24813;SDS011;12904;50.088;11.414;2022-10-22T11:13:58;4.15;;;1.00;;
24813;SDS011;12904;50.088;11.414;2022-10-22T11:16:04;3.55;;;1.20;;
24813;SDS011;12904;50.088;11.414;2022-10-22T11:18:39;1.55;;;1.00;;
24813;SDS011;12904;50.088;11.414;2022-10-22T11:23:44;2.63;;;1.23;;
24813;SDS011;12904;50.088;11.414;2022-10-22T11:29:19;3.92;;;1.15;;
24813;SDS011;12904;50.088;11.414;2022-10-22T11:31:48;3.10;;;1.40;;
24813;SDS011;12904;50.088;11.414;2022-10-22T11:34:19;15.38;;;2.15;;
24813;SDS011;12904;50.088;11.414;2022-10-22T11:36:48;4.13;;;1.55;;
24813;SDS011;12904;50.088;11.414;2022-10-22T11:42:20;1.88;;;1.63;;
24813;SDS011;12904;50.088;11.414;2022-10-22T11:44:57;1.95;;;1.13;;
24813;SDS011;12904;50.088;11.414;2022-10-22T11:47:31;1.95;;;1.80;;
24813;SDS011;12904;50.088;11.414;2022-10-22T11:55:29;1.30;;;1.20;;
24813;SDS011;12904;50.088;11.414;2022-10-22T11:57:58;9.95;;;5.20;;
24813;SDS011;12904;50.088;11.414;2022-10-22T12:16:56;6.85;;;1.40;;
24813;SDS011;12904;50.088;11.414;2022-10-22T12:19:23;3.25;;;1.35;;
24813;SDS011;12904;50.088;11.414;2022-10-22T12:21:52;2.17;;;1.58;;
24813;SDS011;12904;50.088;11.414;2022-10-22T12:24:22;4.60;;;1.73;;
24813;SDS011;12904;50.088;11.414;2022-10-22T12:26:49;10.80;;;2.05;;
24813;SDS011;12904;50.088;11.414;2022-10-22T12:29:17;6.47;;;1.40;;
24813;SDS011;12904;50.088;11.414;2022-10-22T12:31:44;2.47;;;1.25;;
24813;SDS011;12904;50.088;11.414;2022-10-22T12:34:16;3.33;;;1.25;;
24813;SDS011;12904;50.088;11.414;2022-10-22T12:36:46;3.30;;;1.60;;
24813;SDS011;12904;50.088;11.414;2022-10-22T12:39:14;4.03;;;1.63;;
24813;SDS011;12904;50.088;11.414;2022-10-22T12:41:41;4.13;;;2.28;;
24813;SDS011;12904;50.088;11.414;2022-10-22T12:44:09;3.28;;;1.52;;
24813;SDS011;12904;50.088;11.414;2022-10-22T12:46:37;7.85;;;4.57;;
24813;SDS011;12904;50.088;11.414;2022-10-22T12:49:04;4.35;;;1.67;;
24813;SDS011;12904;50.088;11.414;2022-10-22T12:51:32;4.43;;;1.60;;
24813;SDS011;12904;50.088;11.414;2022-10-22T12:56:47;7.25;;;2.53;;
24813;SDS011;12904;50.088;11.414;2022-10-22T12:59:18;2.78;;;1.52;;
24813;SDS011;12904;50.088;11.414;2022-10-22T13:01:44;3.47;;;1.50;;
24813;SDS011;12904;50.088;11.414;2022-10-22T13:06:46;3.55;;;1.20;;
24813;SDS011;12904;50.088;11.414;2022-10-22T13:09:18;3.00;;;1.20;;
24813;SDS011;12904;50.088;11.414;2022-10-22T13:11:48;6.53;;;4.10;;
24813;SDS011;12904;50.088;11.414;2022-10-22T13:14:26;7.90;;;1.60;;
24813;SDS011;12904;50.088;11.414;2022-10-22T13:27:43;5.35;;;4.53;;
24813;SDS011;12904;50.088;11.414;2022-10-22T13:32:55;5.18;;;2.92;;
24813;SDS011;12904;50.088;11.414;2022-10-22T13:35:23;6.72;;;3.55;;
24813;SDS011;12904;50.088;11.414;2022-10-22T13:37:51;4.65;;;2.15;;
24813;SDS011;12904;50.088;11.414;2022-10-22T13:40:17;5.78;;;1.17;;
24813;SDS011;12904;50.088;11.414;2022-10-22T13:42:43;4.15;;;1.48;;
24813;SDS011;12904;50.088;11.414;2022-10-22T13:45:08;6.93;;;1.20;;
24813;SDS011;12904;50.088;11.414;2022-10-22T13:47:34;5.65;;;1.08;;
24813;SDS011;12904;50.088;11.414;2022-10-22T13:50:00;3.08;;;0.95;;
24813;SDS011;12904;50.088;11.414;2022-10-22T13:52:35;4.20;;;0.73;;
24813;SDS011;12904;50.088;11.414;2022-10-22T13:55:15;2.83;;;1.30;;
24813;SDS011;12904;50.088;11.414;2022-10-22T13:57:43;2.13;;;0.90;;
24813;SDS011;12904;50.088;11.414;2022-10-22T14:00:11;2.47;;;0.85;;
24813;SDS011;12904;50.088;11.414;2022-10-22T14:02:38;1.00;;;0.70;;
24813;SDS011;12904;50.088;11.414;2022-10-22T14:05:04;4.85;;;1.17;;
24813;SDS011;12904;50.088;11.414;2022-10-22T14:07:33;3.28;;;0.85;;
24813;SDS011;12904;50.088;11.414;2022-10-22T14:10:00;3.28;;;1.20;;
24813;SDS011;12904;50.088;11.414;2022-10-22T14:12:26;1.48;;;1.02;;
24813;SDS011;12904;50.088;11.414;2022-10-22T14:14:52;3.20;;;1.20;;
24813;SDS011;12904;50.088;11.414;2022-10-22T14:17:18;2.58;;;0.90;;
24813;SDS011;12904;50.088;11.414;2022-10-22T14:19:44;2.28;;;1.00;;
24813;SDS011;12904;50.088;11.414;2022-10-22T14:22:16;3.40;;;1.00;;
24813;SDS011;12904;50.088;11.414;2022-10-22T14:24:43;3.53;;;1.17;;
24813;SDS011;12904;50.088;11.414;2022-10-22T14:27:11;3.78;;;2.90;;
24813;SDS011;12904;50.088;11.414;2022-10-22T14:29:38;3.28;;;1.50;;
24813;SDS011;12904;50.088;11.414;2022-10-22T14:32:05;4.18;;;1.25;;
24813;SDS011;12904;50.088;11.414;2022-10-22T14:34:40;2.83;;;1.13;;
24813;SDS011;12904;50.088;11.414;2022-10-22T14:37:12;2.67;;;1.17;;
24813;SDS011;12904;50.088;11.414;2022-10-22T14:39:44;2.85;;;1.13;;
24813;SDS011;12904;50.088;11.414;2022-10-22T14:42:15;2.05;;;1.02;;
24813;SDS011;12904;50.088;11.414;2022-10-22T14:44:42;1.75;;;0.90;;
24813;SDS011;12904;50.088;11.414;2022-10-22T14:47:07;2.88;;;1.02;;
24813;SDS011;12904;50.088;11.414;2022-10-22T14:49:33;3.45;;;1.33;;
24813;SDS011;12904;50.088;11.414;2022-10-22T14:51:59;3.72;;;1.20;;
24813;SDS011;12904;50.088;11.414;2022-10-22T14:54:24;3.00;;;1.17;;
24813;SDS011;12904;50.088;11.414;2022-10-22T14:56:50;3.03;;;1.52;;
24813;SDS011;12904;50.088;11.414;2022-10-22T14:59:15;2.58;;;1.20;;
24813;SDS011;12904;50.088;11.414;2022-10-22T15:01:41;2.13;;;1.00;;
24813;SDS011;12904;50.088;11.414;2022-10-22T15:04:07;1.90;;;1.13;;
24813;SDS011;12904;50.088;11.414;2022-10-22T15:06:34;4.75;;;1.35;;
24813;SDS011;12904;50.088;11.414;2022-10-22T15:09:00;4.88;;;1.40;;
24813;SDS011;12904;50.088;11.414;2022-10-22T15:11:25;2.13;;;1.15;;
24813;SDS011;12904;50.088;11.414;2022-10-22T15:13:51;7.22;;;1.42;;
24813;SDS011;12904;50.088;11.414;2022-10-22T15:16:17;4.90;;;1.13;;
24813;SDS011;12904;50.088;11.414;2022-10-22T15:18:43;2.03;;;1.00;;
24813;SDS011;12904;50.088;11.414;2022-10-22T15:21:16;3.22;;;1.13;;
24813;SDS011;12904;50.088;11.414;2022-10-22T15:23:43;4.13;;;1.08;;
24813;SDS011;12904;50.088;11.414;2022-10-22T15:26:10;3.75;;;1.25;;
24813;SDS011;12904;50.088;11.414;2022-10-22T15:28:37;5.25;;;1.13;;
24813;SDS011;12904;50.088;11.414;2022-10-22T15:31:04;1.55;;;0.93;;
24813;SDS011;12904;50.088;11.414;2022-10-22T15:33:30;10.32;;;1.33;;
24813;SDS011;12904;50.088;11.414;2022-10-22T15:35:56;3.67;;;0.98;;
24813;SDS011;12904;50.088;11.414;2022-10-22T15:38:30;3.03;;;1.20;;
24813;SDS011;12904;50.088;11.414;2022-10-22T15:41:02;3.83;;;1.33;;
24813;SDS011;12904;50.088;11.414;2022-10-22T15:43:29;3.05;;;1.38;;
24813;SDS011;12904;50.088;11.414;2022-10-22T15:46:11;7.38;;;1.98;;
24813;SDS011;12904;50.088;11.414;2022-10-22T15:48:39;11.95;;;1.67;;
24813;SDS011;12904;50.088;11.414;2022-10-22T15:51:09;3.70;;;1.70;;
24813;SDS011;12904;50.088;11.414;2022-10-22T15:53:37;4.57;;;1.45;;
24813;SDS011;12904;50.088;11.414;2022-10-22T15:56:02;6.10;;;2.00;;
24813;SDS011;12904;50.088;11.414;2022-10-22T15:58:28;3.13;;;1.70;;
24813;SDS011;12904;50.088;11.414;2022-10-22T16:00:54;7.68;;;1.70;;
24813;SDS011;12904;50.088;11.414;2022-10-22T16:03:20;14.52;;;2.38;;
24813;SDS011;12904;50.088;11.414;2022-10-22T16:05:51;3.78;;;1.38;;
24813;SDS011;12904;50.088;11.414;2022-10-22T16:08:18;3.00;;;1.55;;
24813;SDS011;12904;50.088;11.414;2022-10-22T16:10:45;4.75;;;1.90;;
24813;SDS011;12904;50.088;11.414;2022-10-22T16:13:12;4.65;;;1.80;;
24813;SDS011;12904;50.088;11.414;2022-10-22T16:15:38;3.35;;;2.30;;
24813;SDS011;12904;50.088;11.414;2022-10-22T16:18:04;3.70;;;2.60;;
24813;SDS011;12904;50.088;11.414;2022-10-22T16:20:29;5.13;;;2.50;;
24813;SDS011;12904;50.088;11.414;2022-10-22T16:22:55;14.55;;;3.28;;
24813;SDS011;12904;50.088;11.414;2022-10-22T16:25:21;5.22;;;2.50;;
24813;SDS011;12904;50.088;11.414;2022-10-22T16:27:49;7.47;;;2.63;;
24813;SDS011;12904;50.088;11.414;2022-10-22T16:30:16;6.35;;;2.70;;
24813;SDS011;12904;50.088;11.414;2022-10-22T16:32:42;7.07;;;2.80;;
24813;SDS011;12904;50.088;11.414;2022-10-22T16:35:07;5.32;;;2.70;;
24813;SDS011;12904;50.088;11.414;2022-10-22T16:37:33;10.40;;;2.80;;
24813;SDS011;12904;50.088;11.414;2022-10-22T16:39:59;6.97;;;3.78;;
24813;SDS011;12904;50.088;11.414;2022-10-22T16:42:25;7.85;;;3.33;;
24813;SDS011;12904;50.088;11.414;2022-10-22T16:44:50;6.88;;;4.53;;
24813;SDS011;12904;50.088;11.414;2022-10-22T16:47:16;7.47;;;3.80;;
24813;SDS011;12904;50.088;11.414;2022-10-22T16:49:41;11.43;;;4.95;;